Time;durP1;ratioP1;P1;durP2;ratioP2;P2;SDS_P1;SDS_P2;PMS_P1;PMS_P2;Temp;Humidity;BMP_temperature;BMP_pressure;BME280_temperature;BME280_humidity;BME280_pressure;Samples;Min_cycle;Max_cycle;Signal;HPM_P1;HPM_P2
2021/11/11 00:04:20;;;;;;;12.60;5.37;;;17.50;58.40;;;;;;10410823;28;20733;-57
2021/11/11 00:09:43;;;;;;;8.00;4.17;;;17.50;58.50;;;;;;10410859;28;20482;-60
2021/11/11 00:15:09;;;;;;;7.93;4.67;;;17.50;58.60;;;;;;10412296;28;20205;-58
2021/11/11 00:20:31;;;;;;;8.13;4.37;;;17.50;58.70;;;;;;10411926;28;20701;-60
2021/11/11 00:25:54;;;;;;;5.70;3.93;;;17.50;58.60;;;;;;10411584;28;20619;-60
2021/11/11 00:31:17;;;;;;;6.50;3.63;;;17.50;58.30;;;;;;10410873;28;20414;-60
2021/11/11 00:36:39;;;;;;;10.23;4.63;;;17.60;58.80;;;;;;10412044;28;20683;-59
2021/11/11 00:42:02;;;;;;;6.43;4.17;;;17.50;58.30;;;;;;10410206;28;20202;-58
2021/11/11 00:47:25;;;;;;;7.50;4.30;;;17.60;58.40;;;;;;10411368;28;20221;-60
2021/11/11 00:52:48;;;;;;;8.00;4.50;;;17.60;58.50;;;;;;10409996;28;20198;-59
2021/11/11 00:58:10;;;;;;;6.20;3.93;;;17.50;58.50;;;;;;10410819;28;20213;-59
2021/11/11 01:03:40;;;;;;;6.53;4.23;;;17.50;58.50;;;;;;10451033;22;20220;-63
2021/11/11 01:09:02;;;;;;;7.03;4.10;;;17.50;58.50;;;;;;10395068;28;20211;-63
2021/11/11 01:14:24;;;;;;;9.13;4.87;;;17.60;58.30;;;;;;10407383;28;20296;-63
2021/11/11 01:19:48;;;;;;;6.70;4.10;;;17.60;58.30;;;;;;10409079;28;20201;-62
2021/11/11 01:25:15;;;;;;;7.33;4.40;;;17.60;58.40;;;;;;10409559;28;20218;-63
2021/11/11 01:30:40;;;;;;;6.17;4.20;;;17.60;58.50;;;;;;10408486;28;20825;-63
2021/11/11 01:36:04;;;;;;;7.07;4.03;;;17.50;58.60;;;;;;10406824;28;20213;-63
2021/11/11 01:41:26;;;;;;;7.30;4.20;;;17.50;58.60;;;;;;10408567;28;20193;-62
2021/11/11 01:46:49;;;;;;;5.53;3.87;;;17.50;58.60;;;;;;10408812;28;20889;-61
2021/11/11 01:52:13;;;;;;;6.77;4.67;;;17.50;59.20;;;;;;10408464;28;20202;-63
2021/11/11 01:57:36;;;;;;;5.37;4.10;;;17.50;58.40;;;;;;10407763;28;20210;-63
2021/11/11 02:03:00;;;;;;;6.53;4.00;;;17.50;58.30;;;;;;10408193;28;20217;-63
2021/11/11 02:08:26;;;;;;;6.17;3.87;;;17.50;58.40;;;;;;10416749;28;20687;-64
2021/11/11 02:13:48;;;;;;;5.93;3.93;;;17.50;58.50;;;;;;10415612;28;20193;-64
2021/11/11 02:19:10;;;;;;;6.43;3.80;;;17.50;58.50;;;;;;10416049;28;20194;-63
2021/11/11 02:24:34;;;;;;;6.17;4.33;;;17.60;58.60;;;;;;10415270;28;20225;-62
2021/11/11 02:29:56;;;;;;;7.87;4.20;;;17.50;58.70;;;;;;10414769;28;20532;-63
2021/11/11 02:35:19;;;;;;;5.27;4.17;;;17.50;58.90;;;;;;10415496;28;20225;-62
2021/11/11 02:40:43;;;;;;;6.90;4.30;;;17.50;59.00;;;;;;10414489;28;20197;-63
2021/11/11 02:46:05;;;;;;;5.83;4.43;;;17.50;59.10;;;;;;10409449;28;20218;-63
2021/11/11 02:51:27;;;;;;;5.97;4.33;;;17.50;59.30;;;;;;10414898;28;20194;-63
2021/11/11 02:56:51;;;;;;;8.17;4.37;;;17.50;59.30;;;;;;10414808;28;20214;-64
2021/11/11 03:02:24;;;;;;;6.20;4.33;;;17.50;59.20;;;;;;10413917;28;20213;-64
2021/11/11 03:07:46;;;;;;;9.13;5.13;;;17.50;59.20;;;;;;10414911;28;20213;-64
2021/11/11 03:13:11;;;;;;;6.33;4.07;;;17.50;59.30;;;;;;10413722;28;20205;-63
2021/11/11 03:18:33;;;;;;;5.37;4.20;;;17.50;59.30;;;;;;10413879;28;20210;-64
2021/11/11 03:23:55;;;;;;;6.37;4.07;;;17.40;59.40;;;;;;10413618;28;20202;-61
2021/11/11 03:29:19;;;;;;;7.03;4.50;;;17.40;59.50;;;;;;10413014;28;20226;-63
2021/11/11 03:34:42;;;;;;;6.10;4.40;;;17.40;59.70;;;;;;10412871;28;20212;-63
2021/11/11 03:40:07;;;;;;;6.30;3.97;;;17.40;59.80;;;;;;10411959;28;20209;-61
2021/11/11 03:45:31;;;;;;;7.50;4.63;;;17.40;59.80;;;;;;10410181;28;20228;-60
2021/11/11 03:50:53;;;;;;;5.87;3.87;;;17.40;59.70;;;;;;10412861;28;20194;-63
2021/11/11 03:56:16;;;;;;;7.60;4.53;;;17.40;59.70;;;;;;10412768;28;20209;-64
2021/11/11 04:01:39;;;;;;;6.13;3.93;;;17.40;59.80;;;;;;10411951;28;20208;-63
2021/11/11 04:07:02;;;;;;;6.40;4.80;;;17.40;59.80;;;;;;10412217;28;20737;-64
2021/11/11 04:12:24;;;;;;;7.07;4.13;;;17.40;59.70;;;;;;10411303;28;20202;-63
2021/11/11 04:17:47;;;;;;;5.27;3.77;;;17.40;59.70;;;;;;10411448;28;20205;-62
2021/11/11 04:23:09;;;;;;;5.63;4.20;;;17.40;59.70;;;;;;10411658;28;20189;-62
2021/11/11 04:28:34;;;;;;;9.70;4.43;;;17.40;59.60;;;;;;10410835;28;20213;-62
2021/11/11 04:34:02;;;;;;;6.93;4.20;;;17.40;59.60;;;;;;10410000;28;20201;-61
2021/11/11 04:39:42;;;;;;;8.70;4.93;;;17.40;59.50;;;;;;10409471;28;20220;-62
2021/11/11 05:02:11;;;;;;;8.50;4.23;;;17.70;59.50;;;;;;10392702;28;20205;-60
2021/11/11 05:07:35;;;;;;;7.83;4.63;;;17.70;58.50;;;;;;10409682;28;20229;-63
2021/11/11 05:12:57;;;;;;;8.40;4.67;;;17.80;58.30;;;;;;10409778;28;20201;-64
2021/11/11 05:18:19;;;;;;;6.97;4.43;;;17.70;58.20;;;;;;10410249;28;20686;-62
2021/11/11 05:23:43;;;;;;;6.77;4.90;;;17.70;58.30;;;;;;10407657;28;20698;-63
2021/11/11 05:29:05;;;;;;;9.10;5.00;;;17.70;58.30;;;;;;10409447;28;20221;-63
2021/11/11 05:34:27;;;;;;;6.37;3.83;;;17.80;58.50;;;;;;10408232;28;20347;-63
2021/11/11 05:39:51;;;;;;;8.13;4.27;;;17.80;58.60;;;;;;10411762;28;20559;-63
2021/11/11 05:45:15;;;;;;;8.27;4.53;;;17.90;58.30;;;;;;10401233;28;20583;-62
2021/11/11 05:50:37;;;;;;;6.97;4.60;;;17.90;58.20;;;;;;10416446;28;20552;-62
2021/11/11 05:56:01;;;;;;;8.87;4.80;;;17.90;58.50;;;;;;10417118;28;20585;-60
2021/11/11 06:01:25;;;;;;;5.90;4.10;;;17.90;58.60;;;;;;10416141;28;20194;-63
2021/11/11 06:06:47;;;;;;;8.47;5.73;;;17.90;58.80;;;;;;10415399;28;20727;-62
2021/11/11 06:12:11;;;;;;;8.47;5.83;;;18.00;58.30;;;;;;10414290;28;20205;-63
2021/11/11 06:17:33;;;;;;;8.57;5.30;;;17.90;58.00;;;;;;10414319;28;20607;-62
2021/11/11 06:22:55;;;;;;;8.73;4.77;;;18.00;58.00;;;;;;10414487;28;20213;-62
2021/11/11 06:28:19;;;;;;;8.53;5.30;;;18.00;58.30;;;;;;10413139;28;20228;-63
2021/11/11 06:33:41;;;;;;;8.13;5.43;;;18.00;58.10;;;;;;10415178;28;20206;-64
2021/11/11 06:39:04;;;;;;;8.10;4.97;;;18.00;58.10;;;;;;10415753;28;20575;-63
2021/11/11 06:44:27;;;;;;;10.83;4.93;;;18.00;58.30;;;;;;10414076;28;20222;-63
2021/11/11 06:49:50;;;;;;;8.63;5.87;;;18.00;58.20;;;;;;10412735;28;20217;-63
2021/11/11 06:55:12;;;;;;;6.47;4.27;;;18.00;58.00;;;;;;10414659;28;20214;-63
2021/11/11 07:00:36;;;;;;;19.53;5.30;;;18.00;58.30;;;;;;10407515;28;20942;-64
2021/11/11 07:05:59;;;;;;;9.57;4.63;;;18.40;58.60;;;;;;10412299;28;20722;-65
2021/11/11 07:11:21;;;;;;;12.60;4.80;;;18.30;59.40;;;;;;10410793;28;20562;-64
2021/11/11 07:16:45;;;;;;;8.50;3.63;;;18.30;59.90;;;;;;10396673;28;20240;-64
2021/11/11 07:22:09;;;;;;;10.40;4.00;;;18.20;59.60;;;;;;10407535;28;20225;-64
2021/11/11 07:27:33;;;;;;;10.73;5.20;;;18.10;59.80;;;;;;10405940;28;20226;-61
2021/11/11 07:32:57;;;;;;;6.23;4.53;;;18.00;59.90;;;;;;10405517;28;20618;-63
2021/11/11 07:38:21;;;;;;;7.50;4.90;;;18.00;59.90;;;;;;10411388;28;20225;-61
2021/11/11 07:43:44;;;;;;;6.30;4.03;;;17.90;60.00;;;;;;10397323;28;20279;-63
2021/11/11 07:49:07;;;;;;;7.40;3.90;;;17.90;60.10;;;;;;10409953;28;20221;-62
2021/11/11 07:54:30;;;;;;;8.53;4.47;;;17.80;60.10;;;;;;10408313;28;20225;-61
2021/11/11 07:59:53;;;;;;;9.53;5.03;;;17.80;60.20;;;;;;10410289;28;20201;-61
2021/11/11 08:05:19;;;;;;;8.87;5.13;;;17.80;60.20;;;;;;10409491;28;20225;-60
2021/11/11 08:10:41;;;;;;;7.43;4.80;;;17.80;60.20;;;;;;10409744;28;20280;-60
2021/11/11 08:16:03;;;;;;;8.50;5.30;;;17.80;60.20;;;;;;10399204;28;20218;-62
2021/11/11 08:21:27;;;;;;;7.93;5.20;;;17.80;60.20;;;;;;10408976;28;20209;-62
2021/11/11 08:26:49;;;;;;;6.77;4.60;;;17.80;60.20;;;;;;10407361;28;20224;-60
2021/11/11 08:32:13;;;;;;;7.20;4.70;;;17.80;60.20;;;;;;10409356;28;20686;-63
2021/11/11 08:37:36;;;;;;;9.33;4.77;;;17.80;60.20;;;;;;10408039;28;20702;-61
2021/11/11 08:43:01;;;;;;;9.27;5.27;;;17.80;60.20;;;;;;10405624;28;20263;-62
2021/11/11 08:48:23;;;;;;;7.47;5.47;;;17.80;60.00;;;;;;10409253;28;20228;-62
2021/11/11 08:53:47;;;;;;;8.43;5.60;;;17.90;60.40;;;;;;10402547;28;20690;-63
2021/11/11 08:59:09;;;;;;;8.13;5.07;;;17.90;59.60;;;;;;10408995;28;20204;-61
2021/11/11 09:04:31;;;;;;;8.33;5.90;;;18.00;59.50;;;;;;10407180;28;20226;-62
2021/11/11 09:09:55;;;;;;;8.57;5.37;;;18.00;59.20;;;;;;10402157;28;20229;-64
2021/11/11 09:15:19;;;;;;;6.60;4.27;;;18.00;59.20;;;;;;10404941;28;20222;-61
2021/11/11 09:20:41;;;;;;;9.37;6.23;;;18.00;59.30;;;;;;10407143;28;20693;-61
2021/11/11 09:26:06;;;;;;;8.77;5.13;;;18.00;59.10;;;;;;10402204;28;20213;-61
2021/11/11 09:31:28;;;;;;;9.33;6.13;;;18.10;59.20;;;;;;10406635;28;20685;-62
2021/11/11 09:36:51;;;;;;;8.83;4.80;;;18.10;58.80;;;;;;10401645;28;20221;-63
2021/11/11 09:42:14;;;;;;;7.87;4.50;;;18.00;59.00;;;;;;10404167;28;20209;-63
2021/11/11 09:47:37;;;;;;;7.93;5.03;;;18.10;59.00;;;;;;10406163;28;20401;-60
2021/11/11 09:53:05;;;;;;;7.27;4.50;;;18.10;59.10;;;;;;10403350;28;20202;-63
2021/11/11 09:58:43;;;;;;;8.97;5.40;;;18.10;59.10;;;;;;10404731;28;20245;-63
2021/11/11 10:04:06;;;;;;;8.20;5.23;;;18.10;59.00;;;;;;10405449;28;20379;-61
2021/11/11 10:09:29;;;;;;;9.83;4.63;;;18.10;59.10;;;;;;10406256;28;20232;-64
2021/11/11 10:14:53;;;;;;;7.67;4.47;;;18.10;59.50;;;;;;10406151;28;20300;-64
2021/11/11 10:20:15;;;;;;;8.57;5.87;;;18.10;59.20;;;;;;10396107;28;20191;-64
2021/11/11 10:25:37;;;;;;;7.27;5.00;;;18.10;59.20;;;;;;10399740;28;20224;-63
2021/11/11 10:31:01;;;;;;;6.93;5.20;;;18.00;59.20;;;;;;10408066;28;20214;-63
2021/11/11 10:36:39;;;;;;;10.67;5.23;;;18.00;59.20;;;;;;10412762;28;20591;-64
2021/11/11 10:42:15;;;;;;;8.47;5.10;;;17.90;59.10;;;;;;10413021;28;20201;-64
2021/11/11 10:47:40;;;;;;;7.03;4.47;;;17.90;59.30;;;;;;10414453;28;20225;-63
2021/11/11 10:53:04;;;;;;;6.07;3.80;;;17.80;59.50;;;;;;10414561;28;20194;-61
2021/11/11 10:58:29;;;;;;;6.60;4.10;;;17.70;59.60;;;;;;10412173;28;20209;-61
2021/11/11 11:03:57;;;;;;;6.23;4.17;;;17.70;59.90;;;;;;10402359;28;20198;-62
2021/11/11 11:09:19;;;;;;;7.80;4.77;;;17.70;60.10;;;;;;10392453;28;20255;-62
2021/11/11 11:14:42;;;;;;;5.80;3.97;;;17.70;60.30;;;;;;10395741;28;20221;-62
2021/11/11 11:20:22;;;;;;;7.00;3.67;;;17.70;60.30;;;;;;10391662;28;20213;-63
2021/11/11 11:26:04;;;;;;;6.17;3.90;;;17.70;60.20;;;;;;10407506;28;20418;-62
2021/11/11 11:31:30;;;;;;;6.37;4.00;;;17.70;60.10;;;;;;10411251;28;20205;-61
2021/11/11 11:36:56;;;;;;;4.37;3.00;;;17.70;60.00;;;;;;10408981;28;20264;-62
2021/11/11 11:42:21;;;;;;;4.27;3.00;;;17.70;60.00;;;;;;10408752;28;20198;-62
2021/11/11 11:47:48;;;;;;;4.33;3.50;;;17.80;59.80;;;;;;10407547;28;20683;-62
2021/11/11 11:53:13;;;;;;;5.33;2.80;;;17.80;59.80;;;;;;10408661;28;20198;-62
2021/11/11 11:58:42;;;;;;;4.80;3.20;;;17.80;59.70;;;;;;10408286;28;20687;-61
2021/11/11 12:04:17;;;;;;;3.90;3.10;;;17.70;59.80;;;;;;10409860;28;20233;-60
2021/11/11 12:09:44;;;;;;;4.43;2.87;;;17.70;60.00;;;;;;10393086;28;20217;-62
2021/11/11 12:15:20;;;;;;;6.10;3.10;;;17.70;60.20;;;;;;10407458;28;20213;-60
2021/11/11 12:43:34;;;;;;;3.63;2.83;;;17.70;61.10;;;;;;10416878;28;20196;-61
2021/11/11 12:49:24;;;;;;;3.90;2.83;;;17.70;61.00;;;;;;10414622;28;20221;-61
2021/11/11 12:54:47;;;;;;;7.33;2.87;;;17.70;60.70;;;;;;10433824;28;20488;-60
2021/11/11 13:00:30;;;;;;;3.07;2.43;;;17.80;60.60;;;;;;10438668;28;20215;-62
2021/11/11 13:05:54;;;;;;;4.23;2.83;;;17.80;60.60;;;;;;10437008;28;20213;-60
2021/11/11 13:11:27;;;;;;;4.30;2.70;;;17.90;60.40;;;;;;10433917;28;20196;-58
2021/11/11 13:17:10;;;;;;;5.30;2.87;;;17.90;60.50;;;;;;10434607;28;20241;-56
2021/11/11 13:22:44;;;;;;;7.97;3.90;;;17.90;60.10;;;;;;10436978;28;20201;-57
2021/11/11 15:17:31;;;;;;;9.10;5.80;;;18.10;60.10;;;;;;10420027;28;20295;-56
2021/11/11 15:57:12;;;;;;;6.87;4.57;;;18.00;60.50;;;;;;10419117;28;20579;-60
2021/11/11 16:02:54;;;;;;;6.90;4.40;;;18.00;60.60;;;;;;10412023;28;20682;-57
2021/11/11 16:19:55;;;;;;;5.07;4.00;;;17.90;60.80;;;;;;10427605;28;20539;-57
2021/11/11 16:25:36;;;;;;;6.23;4.30;;;17.90;60.90;;;;;;10433624;28;20259;-58
2021/11/11 16:30:59;;;;;;;6.77;3.93;;;17.90;60.90;;;;;;10448791;28;20231;-60
2021/11/11 16:36:21;;;;;;;5.47;3.70;;;17.90;60.90;;;;;;10444073;28;20226;-59
2021/11/11 16:41:46;;;;;;;5.70;3.47;;;17.90;61.00;;;;;;10417994;28;20200;-57
2021/11/11 16:47:10;;;;;;;6.07;3.77;;;17.90;61.00;;;;;;10430177;28;20233;-57
2021/11/11 16:52:32;;;;;;;6.30;4.30;;;17.90;61.00;;;;;;10409826;28;20198;-56
2021/11/11 16:57:56;;;;;;;6.27;4.20;;;17.90;60.90;;;;;;10444243;28;20291;-56
2021/11/11 17:03:20;;;;;;;7.37;5.47;;;17.90;61.00;;;;;;10449267;28;20216;-56
2021/11/11 17:08:42;;;;;;;8.23;5.03;;;17.90;61.50;;;;;;10449964;28;20217;-56
2021/11/11 17:14:05;;;;;;;10.53;5.43;;;17.90;60.80;;;;;;10440928;28;20190;-54
2021/11/11 17:19:28;;;;;;;9.83;5.50;;;17.90;60.90;;;;;;10409930;28;20232;-60
2021/11/11 17:24:52;;;;;;;7.63;5.37;;;17.90;60.70;;;;;;10428649;28;20275;-57
2021/11/11 17:30:16;;;;;;;10.83;6.00;;;17.90;60.80;;;;;;10430878;28;20217;-56
2021/11/11 17:35:38;;;;;;;10.40;5.93;;;17.90;60.80;;;;;;10428968;28;20217;-57
2021/11/11 17:41:03;;;;;;;11.17;6.93;;;17.90;60.70;;;;;;10426132;28;20201;-56
2021/11/11 17:46:29;;;;;;;8.60;5.90;;;17.90;60.70;;;;;;10427084;28;20247;-57
2021/11/11 17:51:56;;;;;;;10.80;6.40;;;17.90;60.90;;;;;;10450301;28;20215;-57
2021/11/11 17:57:19;;;;;;;13.70;7.37;;;17.90;60.80;;;;;;10445411;28;20216;-60
2021/11/11 18:02:43;;;;;;;10.83;6.20;;;17.90;60.80;;;;;;10408412;28;20714;-59
2021/11/11 18:08:12;;;;;;;11.37;7.00;;;17.90;60.90;;;;;;10426795;28;20236;-59
2021/11/11 18:13:37;;;;;;;8.73;5.53;;;17.90;60.80;;;;;;10432236;28;20323;-60
2021/11/11 18:19:01;;;;;;;7.73;5.17;;;17.90;60.90;;;;;;10448681;28;20197;-61
2021/11/11 18:24:24;;;;;;;12.27;7.20;;;17.90;61.10;;;;;;10437542;28;20232;-60
2021/11/11 18:29:52;;;;;;;9.30;5.80;;;17.90;61.00;;;;;;10447901;28;20217;-60
2021/11/11 18:35:23;;;;;;;6.00;5.20;;;17.90;61.00;;;;;;10422961;28;20220;-60
2021/11/11 18:40:47;;;;;;;11.00;6.93;;;17.90;61.10;;;;;;10440145;28;20343;-59
2021/11/11 18:46:11;;;;;;;12.97;8.47;;;17.90;61.00;;;;;;10411300;28;20299;-60
2021/11/11 18:51:37;;;;;;;14.53;8.57;;;17.90;61.00;;;;;;10420525;28;20262;-60
2021/11/11 18:57:00;;;;;;;16.13;9.40;;;17.90;61.10;;;;;;10414981;28;20221;-59
2021/11/11 19:02:24;;;;;;;18.77;10.93;;;17.90;61.70;;;;;;10415110;28;20587;-58
2021/11/11 19:07:53;;;;;;;21.80;12.50;;;17.90;61.10;;;;;;10486689;22;20224;-65
2021/11/11 19:13:23;;;;;;;21.80;11.80;;;17.90;61.00;;;;;;10479448;28;20564;-65
2021/11/11 19:18:48;;;;;;;22.23;13.27;;;17.90;60.90;;;;;;10455326;28;20219;-65
2021/11/11 19:24:12;;;;;;;19.57;12.20;;;17.90;60.90;;;;;;10457176;28;20235;-65
2021/11/11 19:29:38;;;;;;;24.23;12.97;;;17.90;60.90;;;;;;10455987;28;20221;-65
2021/11/11 19:35:08;;;;;;;19.23;12.40;;;17.90;60.90;;;;;;10451868;28;20557;-65
2021/11/11 19:40:41;;;;;;;20.60;12.93;;;17.90;60.90;;;;;;10455135;28;20262;-66
2021/11/11 19:52:07;;;;;;;19.70;11.87;;;17.90;60.90;;;;;;10455401;28;20304;-65
2021/11/11 19:57:47;;;;;;;19.63;12.03;;;17.90;60.90;;;;;;10453357;28;20220;-66
2021/11/11 20:03:16;;;;;;;20.37;13.40;;;17.90;60.80;;;;;;10453083;28;20196;-65
2021/11/11 20:08:51;;;;;;;19.63;11.53;;;17.90;60.80;;;;;;10452181;28;20209;-65
2021/11/11 20:20:18;;;;;;;15.10;10.23;;;17.90;61.00;;;;;;10452769;28;20197;-65
2021/11/11 20:43:14;;;;;;;18.27;10.67;;;17.90;61.00;;;;;;10452747;28;20212;-65
2021/11/11 21:00:04;;;;;;;16.17;10.20;;;17.90;60.90;;;;;;10452152;28;20577;-65
2021/11/11 21:05:34;;;;;;;14.90;10.10;;;17.90;60.90;;;;;;10451536;28;20223;-65
2021/11/11 21:11:20;;;;;;;17.53;10.87;;;17.90;60.80;;;;;;10451040;28;20213;-65
2021/11/11 21:17:05;;;;;;;15.17;10.10;;;17.90;60.60;;;;;;10448648;28;20224;-65
2021/11/11 21:22:28;;;;;;;19.63;10.77;;;17.90;60.70;;;;;;10451493;28;20193;-66
2021/11/11 21:27:51;;;;;;;15.37;10.10;;;17.90;60.70;;;;;;10452849;28;20225;-65
2021/11/11 21:33:16;;;;;;;17.50;10.17;;;17.90;60.60;;;;;;10439267;28;20712;-65
2021/11/11 21:38:43;;;;;;;17.87;10.97;;;17.90;60.70;;;;;;10450699;28;20682;-65
2021/11/11 21:44:11;;;;;;;18.60;11.50;;;17.90;60.70;;;;;;10449631;28;20596;-65
2021/11/11 21:49:34;;;;;;;22.60;12.43;;;17.90;60.60;;;;;;10411075;28;20206;-65
2021/11/11 21:55:04;;;;;;;21.30;12.97;;;17.90;60.50;;;;;;10423102;28;20253;-65
2021/11/11 22:00:31;;;;;;;18.93;11.93;;;17.80;60.60;;;;;;10451520;28;20315;-66
2021/11/11 22:06:24;;;;;;;17.83;11.80;;;17.70;60.80;;;;;;10451420;28;20667;-66
2021/11/11 22:23:09;;;;;;;15.23;11.23;;;17.60;61.40;;;;;;10439255;28;20192;-65
2021/11/11 22:28:44;;;;;;;17.07;10.63;;;17.60;61.60;;;;;;10436697;28;20331;-66
2021/11/11 22:34:08;;;;;;;16.77;11.13;;;17.60;61.60;;;;;;10437344;28;20186;-66
2021/11/11 22:39:31;;;;;;;17.60;10.83;;;17.50;61.70;;;;;;10419104;28;20233;-65
2021/11/11 22:44:55;;;;;;;14.30;8.93;;;17.50;61.80;;;;;;10431978;28;20209;-66
2021/11/11 22:50:21;;;;;;;14.77;9.77;;;17.50;61.90;;;;;;10457333;28;20300;-66
2021/11/11 22:55:46;;;;;;;15.67;10.10;;;17.50;62.00;;;;;;10457843;28;20217;-65
2021/11/11 23:01:36;;;;;;;16.70;9.77;;;17.50;62.00;;;;;;10457047;28;20197;-65
2021/11/11 23:07:10;;;;;;;16.57;9.80;;;17.40;62.00;;;;;;10456767;28;20220;-65
2021/11/11 23:12:56;;;;;;;19.87;11.50;;;17.50;62.00;;;;;;10456658;28;20694;-66
2021/11/11 23:24:08;;;;;;;17.97;11.00;;;17.50;61.60;;;;;;10456239;28;20200;-66
2021/11/11 23:35:12;;;;;;;18.57;11.00;;;17.50;61.50;;;;;;10454995;28;20255;-66
2021/11/11 23:40:34;;;;;;;14.80;9.77;;;17.50;61.60;;;;;;10456003;28;20197;-66
2021/11/11 23:46:11;;;;;;;16.60;10.37;;;17.50;61.60;;;;;;10454912;28;20221;-67
2021/11/11 23:51:53;;;;;;;17.60;11.07;;;17.50;61.80;;;;;;10455264;28;20763;-68
